Time,TemperatureF,DewpointF,PressureIn,WindDirection,WindDirectionDegrees,WindSpeedMPH,WindSpeedGustMPH,Humidity,HourlyPrecipIn,Conditions,Clouds,dailyrainin,SoftwareType,DateUTC
2013-10-30 00:05:00,77.9,77.9,30.04,NE,38,1.0,7.0,100,0.00,,,0.00,Wunderground v.1.15,2013-10-30 04:05:00,
2013-10-30 00:10:00,77.9,77.9,30.04,NNE,27,2.0,6.0,100,0.00,,,0.00,Wunderground v.1.15,2013-10-30 04:10:00,
2013-10-30 00:15:00,77.9,77.9,30.04,NNE,14,2.0,11.0,100,0.00,,,0.00,Wunderground v.1.15,2013-10-30 04:15:00,
2013-10-30 00:20:00,77.9,77.9,30.04,NNE,24,3.0,3.0,100,0.00,,,0.00,Wunderground v.1.15,2013-10-30 04:20:00,
2013-10-30 00:25:00,77.9,77.9,30.04,ENE,58,3.0,11.0,100,0.00,,,0.00,Wunderground v.1.15,2013-10-30 04:25:00,
2013-10-30 00:30:00,77.9,77.9,30.03,NNE,18,3.0,8.0,100,0.00,,,0.00,Wunderground v.1.15,2013-10-30 04:30:00,
2013-10-30 00:35:00,77.9,77.9,30.03,NNE,24,4.0,11.0,100,0.00,,,0.00,Wunderground v.1.15,2013-10-30 04:35:00,
2013-10-30 01:30:00,78.8,78.8,30.02,ENE,65,6.0,6.0,100,0.00,,,0.00,Wunderground v.1.15,2013-10-30 05:30:00,
2013-10-30 01:40:00,79.0,79.0,30.02,ESE,106,5.0,11.0,100,0.00,,,0.00,Wunderground v.1.15,2013-10-30 05:40:00,
2013-10-30 01:50:00,79.0,79.0,30.02,NE,56,7.0,7.0,100,0.00,,,0.00,Wunderground v.1.15,2013-10-30 05:50:00,
2013-10-30 02:00:00,79.0,79.0,30.01,ENE,75,6.0,6.0,100,0.00,,,0.00,Wunderground v.1.15,2013-10-30 06:00:00,
2013-10-30 02:05:00,79.0,79.0,30.01,NE,48,5.0,10.0,100,0.00,,,0.00,Wunderground v.1.15,2013-10-30 06:05:00,
2013-10-30 02:15:00,78.6,78.6,30.01,ENE,66,5.0,12.0,100,0.00,,,0.00,Wunderground v.1.15,2013-10-30 06:15:00,
2013-10-30 02:25:00,79.2,79.2,30.01,East,82,10.0,16.0,100,0.00,,,0.00,Wunderground v.1.15,2013-10-30 06:25:00,
2013-10-30 02:35:00,79.4,79.4,30.01,ENE,65,10.0,18.0,100,0.00,,,0.00,Wunderground v.1.15,2013-10-30 06:35:00,
2013-10-30 02:40:00,79.2,79.2,30.01,ENE,65,10.0,10.0,100,0.00,,,0.00,Wunderground v.1.15,2013-10-30 06:40:00,
2013-10-30 02:50:00,79.2,79.2,30.01,East,80,10.0,10.0,100,0.00,,,0.00,Wunderground v.1.15,2013-10-30 06:50:00,
2013-10-30 03:00:00,79.2,79.2,30.00,ENE,66,9.0,9.0,100,0.00,,,0.00,Wunderground v.1.15,2013-10-30 07:00:00,
2013-10-30 03:10:00,79.0,79.0,30.00,NE,52,9.0,9.0,100,0.00,,,0.00,Wunderground v.1.15,2013-10-30 07:10:00,
2013-10-30 03:20:00,79.0,79.0,30.00,ENE,64,10.0,10.0,100,0.00,,,0.00,Wunderground v.1.15,2013-10-30 07:20:00,
2013-10-30 03:30:00,78.8,78.8,30.00,ENE,68,8.0,8.0,100,0.00,,,0.00,Wunderground v.1.15,2013-10-30 07:30:00,
2013-10-30 03:40:00,78.8,78.8,30.00,ENE,73,8.0,8.0,100,0.00,,,0.00,Wunderground v.1.15,2013-10-30 07:40:00,
2013-10-30 03:50:00,78.6,78.6,30.00,NE,54,7.0,14.0,100,0.00,,,0.00,Wunderground v.1.15,2013-10-30 07:50:00,
2013-10-30 04:00:00,78.8,78.8,30.00,ENE,64,8.0,8.0,100,0.00,,,0.00,Wunderground v.1.15,2013-10-30 08:00:00,
2013-10-30 04:10:00,78.6,78.6,30.00,NE,56,7.0,14.0,100,0.00,,,0.00,Wunderground v.1.15,2013-10-30 08:10:00,
2013-10-30 04:20:00,78.8,78.8,30.00,ENE,76,9.0,9.0,100,0.00,,,0.00,Wunderground v.1.15,2013-10-30 08:20:00,
2013-10-30 04:30:00,78.6,78.6,30.00,ENE,69,7.0,16.0,100,0.00,,,0.00,Wunderground v.1.15,2013-10-30 08:30:00,
2013-10-30 04:40:00,78.6,78.6,30.00,NE,56,6.0,6.0,100,0.00,,,0.00,Wunderground v.1.15,2013-10-30 08:40:00,
2013-10-30 04:45:00,78.5,78.5,29.99,ENE,62,6.0,13.0,100,0.00,,,0.00,Wunderground v.1.15,2013-10-30 08:45:00,
2013-10-30 04:55:00,78.3,78.3,29.99,ENE,71,5.0,12.0,100,0.00,,,0.00,Wunderground v.1.15,2013-10-30 08:55:00,
2013-10-30 05:05:00,78.3,78.3,29.99,NNE,31,5.0,11.0,100,0.00,,,0.00,Wunderground v.1.15,2013-10-30 09:05:00,
2013-10-30 05:15:00,78.1,78.1,29.99,NE,47,5.0,13.0,100,0.00,,,0.00,Wunderground v.1.15,2013-10-30 09:15:00,
2013-10-30 05:25:00,78.1,78.1,29.99,ENE,72,4.0,11.0,100,0.00,,,0.00,Wunderground v.1.15,2013-10-30 09:25:00,
2013-10-30 05:35:00,78.1,78.1,30.00,NE,49,6.0,12.0,100,0.00,,,0.00,Wunderground v.1.15,2013-10-30 09:35:00,
2013-10-30 05:45:00,78.3,78.3,30.00,ENE,69,5.0,13.0,100,0.00,,,0.00,Wunderground v.1.15,2013-10-30 09:45:00,
2013-10-30 05:50:00,78.1,78.1,30.00,ENE,75,5.0,13.0,100,0.00,,,0.00,Wunderground v.1.15,2013-10-30 09:50:00,
2013-10-30 05:55:00,78.3,78.3,30.00,NE,49,5.0,13.0,100,0.00,,,0.00,Wunderground v.1.15,2013-10-30 09:55:00,
2013-10-30 06:05:00,77.9,77.9,30.00,ENE,73,4.0,13.0,100,0.00,,,0.00,Wunderground v.1.15,2013-10-30 10:05:00,
2013-10-30 06:10:00,77.7,77.7,30.00,NE,51,4.0,10.0,100,0.00,,,0.00,Wunderground v.1.15,2013-10-30 10:10:00,
2013-10-30 06:20:00,77.6,77.6,30.00,NE,55,2.0,2.0,100,0.00,,,0.00,Wunderground v.1.15,2013-10-30 10:20:00,
2013-10-30 06:30:00,77.2,77.2,30.01,NE,47,1.0,6.0,100,0.00,,,0.00,Wunderground v.1.15,2013-10-30 10:30:00,
2013-10-30 06:40:00,77.0,77.0,30.01,NE,41,3.0,7.0,100,0.00,,,0.00,Wunderground v.1.15,2013-10-30 10:40:00,
2013-10-30 06:50:00,76.8,76.8,30.01,NE,51,3.0,3.0,100,0.00,,,0.00,Wunderground v.1.15,2013-10-30 10:50:00,
2013-10-30 07:00:00,76.8,76.8,30.01,NE,44,1.0,1.0,100,0.00,,,0.00,Wunderground v.1.15,2013-10-30 11:00:00,
2013-10-30 07:10:00,76.8,76.8,30.01,NNE,24,1.0,1.0,100,0.00,,,0.00,Wunderground v.1.15,2013-10-30 11:10:00,
2013-10-30 07:20:00,76.8,76.8,30.02,NE,41,1.0,1.0,100,0.00,,,0.00,Wunderground v.1.15,2013-10-30 11:20:00,
2013-10-30 07:30:00,76.8,76.8,30.02,NE,45,1.0,6.0,100,0.00,,,0.00,Wunderground v.1.15,2013-10-30 11:30:00,
2013-10-30 07:40:00,76.8,76.8,30.02,NE,42,2.0,2.0,100,0.00,,,0.00,Wunderground v.1.15,2013-10-30 11:40:00,
2013-10-30 07:45:00,76.8,76.8,30.03,NE,42,3.0,3.0,100,0.00,,,0.00,Wunderground v.1.15,2013-10-30 11:45:00,
2013-10-30 07:55:00,77.0,77.0,30.03,NNE,14,2.0,7.0,100,0.00,,,0.00,Wunderground v.1.15,2013-10-30 11:55:00,
2013-10-30 08:00:00,77.0,77.0,30.03,NNE,18,2.0,7.0,100,0.00,,,0.00,Wunderground v.1.15,2013-10-30 12:00:00,
2013-10-30 08:10:00,77.4,77.4,30.03,NE,34,3.0,9.0,100,0.00,,,0.00,Wunderground v.1.15,2013-10-30 12:10:00,
2013-10-30 08:20:00,77.9,77.9,30.03,NE,49,4.0,8.0,100,0.00,,,0.00,Wunderground v.1.15,2013-10-30 12:20:00,
2013-10-30 08:30:00,78.5,78.5,30.04,NE,34,3.0,8.0,100,0.00,,,0.00,Wunderground v.1.15,2013-10-30 12:30:00,
2013-10-30 08:40:00,78.5,78.5,30.04,ENE,58,3.0,7.0,100,0.00,,,0.00,Wunderground v.1.15,2013-10-30 12:40:00,
2013-10-30 08:50:00,79.0,79.0,30.04,NE,42,3.0,14.0,100,0.00,,,0.00,Wunderground v.1.15,2013-10-30 12:50:00,
2013-10-30 09:00:00,79.4,79.4,30.04,NNE,17,5.0,11.0,100,0.00,,,0.00,Wunderground v.1.15,2013-10-30 13:00:00,
2013-10-30 09:05:00,79.2,79.2,30.04,NNE,14,5.0,14.0,100,0.00,,,0.00,Wunderground v.1.15,2013-10-30 13:05:00,
2013-10-30 09:15:00,79.6,79.6,30.04,NE,56,5.0,13.0,100,0.00,,,0.00,Wunderground v.1.15,2013-10-30 13:15:00,
2013-10-30 09:25:00,79.9,79.9,30.04,NNE,31,4.0,12.0,100,0.00,,,0.00,Wunderground v.1.15,2013-10-30 13:25:00,
2013-10-30 09:35:00,80.1,80.1,30.04,NNE,27,4.0,13.0,100,0.00,,,0.00,Wunderground v.1.15,2013-10-30 13:35:00,
2013-10-30 09:45:00,80.3,80.3,30.04,NE,51,6.0,14.0,100,0.00,,,0.00,Wunderground v.1.15,2013-10-30 13:45:00,
2013-10-30 09:55:00,80.5,80.5,30.04,NNE,27,6.0,13.0,100,0.00,,,0.00,Wunderground v.1.15,2013-10-30 13:55:00,
2013-10-30 10:05:00,80.5,80.5,30.05,NNE,25,7.0,16.0,100,0.00,,,0.00,Wunderground v.1.15,2013-10-30 14:05:00,
2013-10-30 10:15:00,80.9,80.9,30.05,East,88,6.0,16.0,100,0.00,,,0.00,Wunderground v.1.15,2013-10-30 14:15:00,
2013-10-30 10:20:00,80.9,80.9,30.05,NE,51,8.0,8.0,100,0.00,,,0.00,Wunderground v.1.15,2013-10-30 14:20:00,
2013-10-30 10:25:00,80.7,80.7,30.05,East,96,7.0,13.0,100,0.00,,,0.00,Wunderground v.1.15,2013-10-30 14:25:00,
2013-10-30 10:35:00,81.1,81.1,30.05,ENE,58,7.0,8.0,100,0.00,,,0.00,Wunderground v.1.15,2013-10-30 14:35:00,
2013-10-30 10:45:00,81.4,81.4,30.06,NE,55,8.0,17.0,100,0.00,,,0.00,Wunderground v.1.15,2013-10-30 14:45:00,
2013-10-30 10:55:00,81.4,81.4,30.06,ENE,68,8.0,14.0,100,0.00,,,0.00,Wunderground v.1.15,2013-10-30 14:55:00,
2013-10-30 11:05:00,81.2,81.2,30.06,NE,47,10.0,16.0,100,0.00,,,0.00,Wunderground v.1.15,2013-10-30 15:05:00,
2013-10-30 11:15:00,81.2,81.2,30.05,ENE,71,8.0,11.0,100,0.00,,,0.00,Wunderground v.1.15,2013-10-30 15:15:00,
2013-10-30 11:20:00,81.4,81.4,30.05,NE,44,9.0,16.0,100,0.00,,,0.00,Wunderground v.1.15,2013-10-30 15:20:00,
2013-10-30 11:30:00,81.2,81.2,30.06,ENE,66,9.0,9.0,100,0.00,,,0.00,Wunderground v.1.15,2013-10-30 15:30:00,
2013-10-30 11:35:00,81.4,81.4,30.06,NE,54,9.0,13.0,100,0.00,,,0.00,Wunderground v.1.15,2013-10-30 15:35:00,
2013-10-30 11:45:00,81.2,81.2,30.05,NNE,21,9.0,18.0,100,0.00,,,0.00,Wunderground v.1.15,2013-10-30 15:45:00,
2013-10-30 11:55:00,81.6,81.6,30.05,NE,45,8.0,8.0,100,0.00,,,0.00,Wunderground v.1.15,2013-10-30 15:55:00,
2013-10-30 12:05:00,81.4,81.4,30.05,NE,52,9.0,18.0,100,0.00,,,0.00,Wunderground v.1.15,2013-10-30 16:05:00,
2013-10-30 12:15:00,81.6,81.6,30.04,NE,54,9.0,15.0,100,0.00,,,0.00,Wunderground v.1.15,2013-10-30 16:15:00,
2013-10-30 12:20:00,82.2,82.2,30.04,ENE,75,9.0,9.0,100,0.00,,,0.00,Wunderground v.1.15,2013-10-30 16:20:00,
2013-10-30 12:25:00,82.0,82.0,30.04,ENE,59,9.0,13.0,100,0.00,,,0.00,Wunderground v.1.15,2013-10-30 16:25:00,
2013-10-30 12:35:00,81.8,81.8,30.05,ENE,59,9.0,14.0,100,0.00,,,0.00,Wunderground v.1.15,2013-10-30 16:35:00,
2013-10-30 12:45:00,82.2,82.2,30.04,NE,51,8.0,19.0,100,0.00,,,0.00,Wunderground v.1.15,2013-10-30 16:45:00,
2013-10-30 12:55:00,81.8,81.8,30.04,NNE,21,9.0,16.0,100,0.00,,,0.00,Wunderground v.1.15,2013-10-30 16:55:00,
2013-10-30 13:05:00,82.2,82.2,30.03,ENE,73,8.0,15.0,100,0.00,,,0.00,Wunderground v.1.15,2013-10-30 17:05:00,
2013-10-30 13:15:00,82.2,82.2,30.03,NE,52,9.0,9.0,100,0.00,,,0.00,Wunderground v.1.15,2013-10-30 17:15:00,
2013-10-30 13:25:00,82.0,82.0,30.03,NE,47,10.0,10.0,100,0.00,,,0.00,Wunderground v.1.15,2013-10-30 17:25:00,
2013-10-30 13:35:00,82.0,82.0,30.02,NE,42,9.0,12.0,100,0.00,,,0.00,Wunderground v.1.15,2013-10-30 17:35:00,
2013-10-30 13:40:00,82.0,82.0,30.02,ENE,76,9.0,17.0,100,0.00,,,0.00,Wunderground v.1.15,2013-10-30 17:40:00,
2013-10-30 13:50:00,82.2,82.2,30.01,ENE,65,10.0,10.0,100,0.00,,,0.00,Wunderground v.1.15,2013-10-30 17:50:00,
2013-10-30 14:00:00,82.4,82.4,30.00,ENE,65,9.0,18.0,100,0.00,,,0.00,Wunderground v.1.15,2013-10-30 18:00:00,
2013-10-30 14:05:00,82.4,82.4,30.00,NE,49,8.0,19.0,100,0.00,,,0.00,Wunderground v.1.15,2013-10-30 18:05:00,
2013-10-30 14:15:00,82.2,82.2,30.00,ENE,68,9.0,17.0,100,0.00,,,0.00,Wunderground v.1.15,2013-10-30 18:15:00,
2013-10-30 14:25:00,81.8,81.8,30.00,ENE,66,11.0,17.0,100,0.00,,,0.00,Wunderground v.1.15,2013-10-30 18:25:00,
2013-10-30 14:35:00,82.0,82.0,29.98,ENE,69,9.0,11.0,100,0.00,,,0.00,Wunderground v.1.15,2013-10-30 18:35:00,
2013-10-30 14:45:00,81.8,81.8,29.98,ENE,66,9.0,10.0,100,0.00,,,0.00,Wunderground v.1.15,2013-10-30 18:45:00,
2013-10-30 14:55:00,82.0,82.0,29.98,ENE,59,9.0,15.0,100,0.00,,,0.00,Wunderground v.1.15,2013-10-30 18:55:00,
2013-10-30 15:05:00,82.2,82.2,29.97,NE,42,8.0,15.0,100,0.00,,,0.00,Wunderground v.1.15,2013-10-30 19:05:00,
2013-10-30 15:15:00,81.8,81.8,29.98,ENE,73,10.0,10.0,100,0.00,,,0.00,Wunderground v.1.15,2013-10-30 19:15:00,
2013-10-30 15:20:00,82.2,82.2,29.98,East,83,8.0,8.0,100,0.00,,,0.00,Wunderground v.1.15,2013-10-30 19:20:00,
2013-10-30 15:30:00,82.2,82.2,29.98,ENE,69,8.0,14.0,100,0.00,,,0.00,Wunderground v.1.15,2013-10-30 19:30:00,
2013-10-30 15:35:00,82.0,82.0,29.98,NE,54,9.0,17.0,100,0.00,,,0.00,Wunderground v.1.15,2013-10-30 19:35:00,
2013-10-30 15:45:00,82.0,82.0,29.97,NE,45,8.0,16.0,100,0.00,,,0.00,Wunderground v.1.15,2013-10-30 19:45:00,
2013-10-30 15:55:00,81.8,81.8,29.97,NE,41,10.0,19.0,100,0.00,,,0.00,Wunderground v.1.15,2013-10-30 19:55:00,
2013-10-30 16:05:00,81.8,81.8,29.97,NE,49,9.0,16.0,100,0.00,,,0.00,Wunderground v.1.15,2013-10-30 20:05:00,
2013-10-30 16:15:00,82.0,82.0,29.97,NNE,30,8.0,14.0,100,0.00,,,0.00,Wunderground v.1.15,2013-10-30 20:15:00,
2013-10-30 16:25:00,81.6,81.6,29.97,North,0,9.0,16.0,100,0.00,,,0.00,Wunderground v.1.15,2013-10-30 20:25:00,
2013-10-30 16:35:00,81.6,81.6,29.97,NE,52,9.0,10.0,100,0.00,,,0.00,Wunderground v.1.15,2013-10-30 20:35:00,
2013-10-30 16:45:00,81.2,81.2,29.97,NE,45,10.0,19.0,100,0.00,,,0.00,Wunderground v.1.15,2013-10-30 20:45:00,
2013-10-30 16:55:00,81.6,81.6,29.97,NE,44,7.0,17.0,100,0.00,,,0.00,Wunderground v.1.15,2013-10-30 20:55:00,
2013-10-30 17:05:00,81.2,81.2,29.97,North,6,8.0,16.0,100,0.00,,,0.00,Wunderground v.1.15,2013-10-30 21:05:00,
2013-10-30 17:15:00,81.2,81.2,29.97,ENE,61,9.0,17.0,100,0.00,,,0.00,Wunderground v.1.15,2013-10-30 21:15:00,
2013-10-30 17:25:00,80.9,80.9,29.97,NE,44,10.0,17.0,100,0.00,,,0.00,Wunderground v.1.15,2013-10-30 21:25:00,
2013-10-30 17:35:00,80.7,80.7,29.97,East,86,9.0,17.0,100,0.00,,,0.00,Wunderground v.1.15,2013-10-30 21:35:00,
2013-10-30 17:45:00,80.5,80.5,29.97,ENE,72,8.0,17.0,100,0.00,,,0.00,Wunderground v.1.15,2013-10-30 21:45:00,
2013-10-30 17:55:00,80.1,80.1,29.97,East,82,7.0,11.0,100,0.00,,,0.00,Wunderground v.1.15,2013-10-30 21:55:00,
2013-10-30 18:05:00,79.8,79.8,29.97,NE,45,8.0,17.0,100,0.00,,,0.00,Wunderground v.1.15,2013-10-30 22:05:00,
2013-10-30 18:15:00,79.9,79.9,29.96,ENE,69,7.0,17.0,100,0.00,,,0.00,Wunderground v.1.15,2013-10-30 22:15:00,
2013-10-30 18:25:00,79.6,79.6,29.96,NE,52,8.0,19.0,100,0.00,,,0.00,Wunderground v.1.15,2013-10-30 22:25:00,
2013-10-30 18:30:00,79.6,79.6,29.97,NE,37,9.0,18.0,100,0.00,,,0.00,Wunderground v.1.15,2013-10-30 22:30:00,
2013-10-30 18:40:00,79.2,79.2,29.97,ENE,64,6.0,6.0,100,0.00,,,0.00,Wunderground v.1.15,2013-10-30 22:40:00,
2013-10-30 18:50:00,79.2,79.2,29.97,NE,41,7.0,7.0,100,0.00,,,0.00,Wunderground v.1.15,2013-10-30 22:50:00,
2013-10-30 19:00:00,79.2,79.2,29.97,ENE,69,6.0,16.0,100,0.00,,,0.00,Wunderground v.1.15,2013-10-30 23:00:00,
2013-10-30 19:10:00,79.0,79.0,29.97,NE,42,6.0,11.0,100,0.00,,,0.00,Wunderground v.1.15,2013-10-30 23:10:00,
2013-10-30 19:20:00,79.0,79.0,29.98,ENE,65,5.0,13.0,100,0.00,,,0.00,Wunderground v.1.15,2013-10-30 23:20:00,
2013-10-30 19:25:00,79.0,79.0,29.98,NNE,27,3.0,13.0,100,0.00,,,0.00,Wunderground v.1.15,2013-10-30 23:25:00,
2013-10-30 19:35:00,78.8,78.8,29.98,NNE,30,3.0,10.0,100,0.00,,,0.00,Wunderground v.1.15,2013-10-30 23:35:00,
2013-10-30 19:45:00,78.6,78.6,29.99,NE,45,4.0,11.0,100,0.00,,,0.00,Wunderground v.1.15,2013-10-30 23:45:00,
2013-10-30 19:55:00,78.8,78.8,29.99,NNE,25,2.0,12.0,100,0.00,,,0.00,Wunderground v.1.15,2013-10-30 23:55:00,
2013-10-30 20:05:00,78.6,78.6,29.99,ENE,61,3.0,9.0,100,0.00,,,0.00,Wunderground v.1.15,2013-10-31 00:05:00,
2013-10-30 20:15:00,78.6,78.6,30.00,NE,56,4.0,12.0,100,0.00,,,0.00,Wunderground v.1.15,2013-10-31 00:15:00,
2013-10-30 20:20:00,79.0,79.0,30.00,NE,42,5.0,12.0,100,0.00,,,0.00,Wunderground v.1.15,2013-10-31 00:20:00,
2013-10-30 20:30:00,79.4,79.4,30.00,ENE,66,7.0,15.0,100,0.00,,,0.00,Wunderground v.1.15,2013-10-31 00:30:00,
2013-10-30 20:40:00,79.6,79.6,30.00,ENE,64,8.0,16.0,100,0.00,,,0.00,Wunderground v.1.15,2013-10-31 00:40:00,
2013-10-30 20:45:00,79.4,79.4,30.00,ESE,106,8.0,16.0,100,0.00,,,0.00,Wunderground v.1.15,2013-10-31 00:45:00,
2013-10-30 20:55:00,79.8,79.8,30.00,NE,54,10.0,13.0,100,0.00,,,0.00,Wunderground v.1.15,2013-10-31 00:55:00,
2013-10-30 21:05:00,79.8,79.8,30.00,ENE,71,10.0,19.0,100,0.00,,,0.00,Wunderground v.1.15,2013-10-31 01:05:00,
2013-10-30 21:15:00,79.8,79.8,30.00,ENE,76,10.0,11.0,100,0.00,,,0.00,Wunderground v.1.15,2013-10-31 01:15:00,
2013-10-30 21:25:00,79.8,79.8,30.00,ENE,78,10.0,18.0,100,0.00,,,0.00,Wunderground v.1.15,2013-10-31 01:25:00,
2013-10-30 21:35:00,79.8,79.8,30.00,ENE,68,10.0,15.0,100,0.00,,,0.00,Wunderground v.1.15,2013-10-31 01:35:00,
2013-10-30 21:45:00,79.9,79.9,30.00,ENE,59,10.0,17.0,100,0.00,,,0.00,Wunderground v.1.15,2013-10-31 01:45:00,
2013-10-30 21:55:00,79.9,79.9,30.00,ENE,73,10.0,17.0,100,0.00,,,0.00,Wunderground v.1.15,2013-10-31 01:55:00,
2013-10-30 22:00:00,79.9,79.9,30.00,ENE,61,10.0,10.0,100,0.00,,,0.00,Wunderground v.1.15,2013-10-31 02:00:00,
2013-10-30 22:05:00,79.9,79.9,30.00,ENE,72,10.0,16.0,100,0.00,,,0.00,Wunderground v.1.15,2013-10-31 02:05:00,
2013-10-30 22:15:00,79.9,79.9,30.01,NE,52,8.0,17.0,100,0.00,,,0.00,Wunderground v.1.15,2013-10-31 02:15:00,
2013-10-30 22:20:00,79.9,79.9,30.01,ENE,59,10.0,19.0,100,0.00,,,0.00,Wunderground v.1.15,2013-10-31 02:20:00,
2013-10-30 22:30:00,79.9,79.9,30.01,East,90,9.0,20.0,100,0.00,,,0.00,Wunderground v.1.15,2013-10-31 02:30:00,
2013-10-30 22:40:00,79.9,79.9,30.01,ENE,68,8.0,8.0,100,0.00,,,0.00,Wunderground v.1.15,2013-10-31 02:40:00,
2013-10-30 22:50:00,79.9,79.9,30.01,ENE,65,8.0,8.0,100,0.00,,,0.00,Wunderground v.1.15,2013-10-31 02:50:00,
2013-10-30 23:00:00,79.9,79.9,30.01,ENE,59,8.0,11.0,100,0.00,,,0.00,Wunderground v.1.15,2013-10-31 03:00:00,
2013-10-30 23:10:00,79.9,79.9,30.01,East,90,6.0,6.0,100,0.00,,,0.00,Wunderground v.1.15,2013-10-31 03:10:00,
2013-10-30 23:20:00,79.8,79.8,30.00,NE,51,8.0,12.0,100,0.00,,,0.00,Wunderground v.1.15,2013-10-31 03:20:00,
2013-10-30 23:25:00,79.8,79.8,30.00,East,79,10.0,12.0,100,0.00,,,0.00,Wunderground v.1.15,2013-10-31 03:25:00,
2013-10-30 23:35:00,79.8,79.8,30.00,East,79,9.0,12.0,100,0.00,,,0.00,Wunderground v.1.15,2013-10-31 03:35:00,
2013-10-30 23:45:00,79.8,79.8,30.00,East,85,5.0,11.0,100,0.00,,,0.00,Wunderground v.1.15,2013-10-31 03:45:00,
2013-10-30 23:50:00,79.8,79.8,30.00,NE,44,6.0,6.0,100,0.00,,,0.00,Wunderground v.1.15,2013-10-31 03:50:00,